モントリオール/トルドー の空港の天気 - METARとTAF

モントリオール・ピエール・エリオット・トルドー国際空港 ( CYUL / YUL ) - カナダ ケベック州モントリオール
飛行場実況気象(Metar)
観測時間01/21 13:00 EST (01/21 18:00 UTC)
風向・風速西 8m/s 瞬間風速11m/s
視程2000m
天気現象弱い雪 高い地吹雪
全天を覆う雲 雲底高度 670m
気温-19℃
湿度71%
気圧1016.5hPa
METARCYUL 211800Z 27016G21KT 1 1/4SM -SN BLSN OVC022 M19/M23 A3000 RMK SN1SC7 /S01/ SLP165
過去の天気等 Google飛行場航空写真 Wunderground天気予報

過去48時間のMETAR

飛行場予報(TAF)
発表時間: 1/21 12:38 EST (1/21 17:38 UTC)
予報対象時間: 21日13時 EST ~ 22日13時 EST
風向・風速西 8m/s 瞬間風速 13m/s
視程8850m
天気現象弱い雪 高い地吹雪
全天の8割程度の雲 雲底高度 610m
全天を覆う雲 雲底高度 1220m
21日13時 EST ~ 21日14時 EST に一時的に
視程10km以上
天気現象弱い雪
全天の8割程度の雲 雲底高度 1220m
全天を覆う雲 雲底高度 3050m
21日14時 EST から
風向・風速西 8m/s 瞬間風速 13m/s
視程10km以上
天気現象弱い雪
全天の4割程度の雲 雲底高度 1220m
全天の8割程度の雲 雲底高度 3050m
21日14時 EST ~ 21日16時 EST に一時的に
視程6440m
天気現象弱い雪
全天の8割程度の雲 雲底高度 1220m
全天を覆う雲 雲底高度 3050m
21日17時 EST から
風向・風速西 6m/s 瞬間風速 11m/s
視程10km以上
全天の8割程度の雲 雲底高度 3660m
21日20時 EST から
風向・風速西 6m/s
視程10km以上
全天の4割程度の雲 雲底高度 4570m
22日12時 EST から
風向・風速西南西 8m/s
視程10km以上
全天の8割程度の雲 雲底高度 7320m
TAF CYUL 211738Z 2118/2218 26015G25KT 11/2SM -SN BLSN BKN020 OVC040
TEMPO 2118/2119 6SM -SN BKN040 OVC100
FM211900 26015G25KT P6SM -SN SCT040 BKN100
TEMPO 2119/2121 4SM -SN BKN040 OVC100
FM212200 27012G22KT P6SM BKN120
FM220100 27012KT P6SM SCT150
FM221700 24015KT P6SM BKN240 RMK NXT FCST BY 212100Z